sensor_id;sensor_type;location;lat;lon;timestamp;temperature;humidity
11505;DHT22;5809;53.262;10.408;2023-12-04T00:01:13;-2.50;99.90
11505;DHT22;5809;53.262;10.408;2023-12-04T00:03:40;-2.60;99.90
11505;DHT22;5809;53.262;10.408;2023-12-04T00:06:07;-2.60;99.90
11505;DHT22;5809;53.262;10.408;2023-12-04T00:08:36;-2.60;99.90
11505;DHT22;5809;53.262;10.408;2023-12-04T00:11:03;-2.60;99.90
11505;DHT22;5809;53.262;10.408;2023-12-04T00:13:30;-2.60;99.90
11505;DHT22;5809;53.262;10.408;2023-12-04T00:18:26;-2.60;99.90
11505;DHT22;5809;53.262;10.408;2023-12-04T00:20:52;-2.60;99.90
11505;DHT22;5809;53.262;10.408;2023-12-04T00:25:46;-2.60;99.90
11505;DHT22;5809;53.262;10.408;2023-12-04T00:30:40;-2.70;99.90
11505;DHT22;5809;53.262;10.408;2023-12-04T00:35:36;-2.70;99.90
11505;DHT22;5809;53.262;10.408;2023-12-04T00:40:30;-2.70;99.90
11505;DHT22;5809;53.262;10.408;2023-12-04T00:42:56;-2.80;99.90
11505;DHT22;5809;53.262;10.408;2023-12-04T00:47:50;-2.70;99.90
11505;DHT22;5809;53.262;10.408;2023-12-04T00:52:46;-2.90;99.90
11505;DHT22;5809;53.262;10.408;2023-12-04T00:55:13;-2.80;99.90
11505;DHT22;5809;53.262;10.408;2023-12-04T01:00:08;-2.80;99.90
11505;DHT22;5809;53.262;10.408;2023-12-04T01:02:35;-2.80;99.90
11505;DHT22;5809;53.262;10.408;2023-12-04T01:07:29;-2.80;99.90
11505;DHT22;5809;53.262;10.408;2023-12-04T01:09:57;-2.90;99.90
11505;DHT22;5809;53.262;10.408;2023-12-04T01:14:52;-2.90;99.90
11505;DHT22;5809;53.262;10.408;2023-12-04T01:17:18;-2.90;99.90
11505;DHT22;5809;53.262;10.408;2023-12-04T01:19:45;-3.00;99.90
11505;DHT22;5809;53.262;10.408;2023-12-04T01:24:39;-3.00;99.90
11505;DHT22;5809;53.262;10.408;2023-12-04T01:27:07;-3.10;99.90
11505;DHT22;5809;53.262;10.408;2023-12-04T01:29:34;-3.10;99.90
11505;DHT22;5809;53.262;10.408;2023-12-04T01:32:01;-3.10;99.90
11505;DHT22;5809;53.262;10.408;2023-12-04T01:36:54;-3.10;99.90
11505;DHT22;5809;53.262;10.408;2023-12-04T01:41:47;-3.10;99.90
11505;DHT22;5809;53.262;10.408;2023-12-04T01:44:16;-3.00;99.90
11505;DHT22;5809;53.262;10.408;2023-12-04T01:46:43;-3.10;99.90
11505;DHT22;5809;53.262;10.408;2023-12-04T01:49:10;-3.10;99.90
11505;DHT22;5809;53.262;10.408;2023-12-04T01:51:37;-3.10;99.90
11505;DHT22;5809;53.262;10.408;2023-12-04T01:54:05;-3.10;99.90
11505;DHT22;5809;53.262;10.408;2023-12-04T01:56:33;-3.10;99.90
11505;DHT22;5809;53.262;10.408;2023-12-04T02:01:30;-3.10;99.90
11505;DHT22;5809;53.262;10.408;2023-12-04T02:03:57;-3.10;99.90
11505;DHT22;5809;53.262;10.408;2023-12-04T02:06:26;-3.10;99.90
11505;DHT22;5809;53.262;10.408;2023-12-04T02:08:53;-3.10;99.90
11505;DHT22;5809;53.262;10.408;2023-12-04T02:13:47;-3.10;99.90
11505;DHT22;5809;53.262;10.408;2023-12-04T02:16:15;-3.00;99.90
11505;DHT22;5809;53.262;10.408;2023-12-04T02:18:46;-3.00;99.90
11505;DHT22;5809;53.262;10.408;2023-12-04T02:23:40;-3.00;99.90
11505;DHT22;5809;53.262;10.408;2023-12-04T02:26:13;-3.00;99.90
11505;DHT22;5809;53.262;10.408;2023-12-04T02:28:46;-3.00;99.90
11505;DHT22;5809;53.262;10.408;2023-12-04T02:31:16;-3.00;99.90
11505;DHT22;5809;53.262;10.408;2023-12-04T02:33:45;-2.90;99.90
11505;DHT22;5809;53.262;10.408;2023-12-04T02:38:41;-2.90;99.90
11505;DHT22;5809;53.262;10.408;2023-12-04T02:41:09;-2.80;99.90
11505;DHT22;5809;53.262;10.408;2023-12-04T02:43:36;-2.80;99.90
11505;DHT22;5809;53.262;10.408;2023-12-04T02:46:03;-2.80;99.90
11505;DHT22;5809;53.262;10.408;2023-12-04T02:50:57;-2.70;99.90
11505;DHT22;5809;53.262;10.408;2023-12-04T02:55:51;-2.70;99.90
11505;DHT22;5809;53.262;10.408;2023-12-04T02:58:19;-2.70;99.90
11505;DHT22;5809;53.262;10.408;2023-12-04T03:00:46;-2.70;99.90
11505;DHT22;5809;53.262;10.408;2023-12-04T03:03:13;-2.80;99.90
11505;DHT22;5809;53.262;10.408;2023-12-04T03:13:01;-2.80;99.90
11505;DHT22;5809;53.262;10.408;2023-12-04T03:15:29;-2.80;99.90
11505;DHT22;5809;53.262;10.408;2023-12-04T03:17:59;-2.80;99.90
11505;DHT22;5809;53.262;10.408;2023-12-04T03:22:53;-2.90;99.90
11505;DHT22;5809;53.262;10.408;2023-12-04T03:25:20;-2.90;99.90
11505;DHT22;5809;53.262;10.408;2023-12-04T03:32:43;-2.90;99.90
11505;DHT22;5809;53.262;10.408;2023-12-04T03:40:05;-2.90;99.90
11505;DHT22;5809;53.262;10.408;2023-12-04T03:42:32;-2.90;99.90
11505;DHT22;5809;53.262;10.408;2023-12-04T03:47:26;-2.80;99.90
11505;DHT22;5809;53.262;10.408;2023-12-04T03:49:54;-2.80;99.90
11505;DHT22;5809;53.262;10.408;2023-12-04T03:54:48;-2.80;99.90
11505;DHT22;5809;53.262;10.408;2023-12-04T03:59:43;-2.70;99.90
11505;DHT22;5809;53.262;10.408;2023-12-04T04:02:10;-2.70;99.90
11505;DHT22;5809;53.262;10.408;2023-12-04T04:04:37;-2.70;99.90
11505;DHT22;5809;53.262;10.408;2023-12-04T04:07:05;-2.70;99.90
11505;DHT22;5809;53.262;10.408;2023-12-04T04:09:32;-2.70;99.90
11505;DHT22;5809;53.262;10.408;2023-12-04T04:11:59;-2.70;99.90
11505;DHT22;5809;53.262;10.408;2023-12-04T04:21:47;-2.70;99.90
11505;DHT22;5809;53.262;10.408;2023-12-04T04:24:15;-2.70;99.90
11505;DHT22;5809;53.262;10.408;2023-12-04T04:29:09;-2.60;99.90
11505;DHT22;5809;53.262;10.408;2023-12-04T04:34:03;-2.60;99.90
11505;DHT22;5809;53.262;10.408;2023-12-04T04:36:29;-2.70;99.90
11505;DHT22;5809;53.262;10.408;2023-12-04T04:41:25;-2.60;99.90
11505;DHT22;5809;53.262;10.408;2023-12-04T04:43:52;-2.70;99.90
11505;DHT22;5809;53.262;10.408;2023-12-04T04:46:19;-2.70;99.90
11505;DHT22;5809;53.262;10.408;2023-12-04T04:48:46;-2.70;99.90
11505;DHT22;5809;53.262;10.408;2023-12-04T04:51:12;-2.80;99.90
11505;DHT22;5809;53.262;10.408;2023-12-04T04:53:39;-2.80;99.90
11505;DHT22;5809;53.262;10.408;2023-12-04T04:56:08;-2.80;99.90
11505;DHT22;5809;53.262;10.408;2023-12-04T04:58:37;-2.80;99.90
11505;DHT22;5809;53.262;10.408;2023-12-04T05:01:04;-2.80;99.90
11505;DHT22;5809;53.262;10.408;2023-12-04T05:03:31;-2.80;99.90
11505;DHT22;5809;53.262;10.408;2023-12-04T05:08:25;-2.80;99.90
11505;DHT22;5809;53.262;10.408;2023-12-04T05:10:52;-2.80;99.90
11505;DHT22;5809;53.262;10.408;2023-12-04T05:15:47;-2.90;99.90
11505;DHT22;5809;53.262;10.408;2023-12-04T05:25:35;-2.90;99.90
11505;DHT22;5809;53.262;10.408;2023-12-04T05:28:02;-2.90;99.90
11505;DHT22;5809;53.262;10.408;2023-12-04T05:32:58;-3.00;99.90
11505;DHT22;5809;53.262;10.408;2023-12-04T05:35:25;-2.90;99.90
11505;DHT22;5809;53.262;10.408;2023-12-04T05:37:51;-2.90;99.90
11505;DHT22;5809;53.262;10.408;2023-12-04T05:40:18;-2.90;99.90
11505;DHT22;5809;53.262;10.408;2023-12-04T05:50:09;-2.80;99.90
11505;DHT22;5809;53.262;10.408;2023-12-04T05:55:03;-2.70;99.90
11505;DHT22;5809;53.262;10.408;2023-12-04T05:57:30;-2.70;99.90
11505;DHT22;5809;53.262;10.408;2023-12-04T06:02:25;-2.70;99.90
11505;DHT22;5809;53.262;10.408;2023-12-04T06:04:53;-2.60;99.90
11505;DHT22;5809;53.262;10.408;2023-12-04T06:07:21;-2.60;99.90
11505;DHT22;5809;53.262;10.408;2023-12-04T06:14:42;-2.50;99.90
11505;DHT22;5809;53.262;10.408;2023-12-04T06:17:09;-2.60;99.90
11505;DHT22;5809;53.262;10.408;2023-12-04T06:22:03;-2.50;99.90
11505;DHT22;5809;53.262;10.408;2023-12-04T06:24:32;-2.50;99.90
11505;DHT22;5809;53.262;10.408;2023-12-04T06:26:59;-2.60;99.90
11505;DHT22;5809;53.262;10.408;2023-12-04T06:29:27;-2.60;99.90
11505;DHT22;5809;53.262;10.408;2023-12-04T06:31:55;-2.60;99.90
11505;DHT22;5809;53.262;10.408;2023-12-04T06:34:23;-2.50;99.90
11505;DHT22;5809;53.262;10.408;2023-12-04T06:39:18;-2.50;99.90
11505;DHT22;5809;53.262;10.408;2023-12-04T06:41:47;-2.50;99.90
11505;DHT22;5809;53.262;10.408;2023-12-04T06:44:14;-2.50;99.90
11505;DHT22;5809;53.262;10.408;2023-12-04T06:49:09;-2.50;99.90
11505;DHT22;5809;53.262;10.408;2023-12-04T06:51:38;-2.50;99.90
11505;DHT22;5809;53.262;10.408;2023-12-04T06:59:00;-2.30;99.90
11505;DHT22;5809;53.262;10.408;2023-12-04T07:01:27;-2.30;99.90
11505;DHT22;5809;53.262;10.408;2023-12-04T07:03:54;-2.30;99.90
11505;DHT22;5809;53.262;10.408;2023-12-04T07:08:48;-2.20;99.90
11505;DHT22;5809;53.262;10.408;2023-12-04T07:16:10;-2.10;99.90
11505;DHT22;5809;53.262;10.408;2023-12-04T07:21:05;-2.00;99.90
11505;DHT22;5809;53.262;10.408;2023-12-04T07:23:32;-2.00;99.90
11505;DHT22;5809;53.262;10.408;2023-12-04T07:25:58;-2.00;99.90
11505;DHT22;5809;53.262;10.408;2023-12-04T07:30:54;-2.00;99.90
11505;DHT22;5809;53.262;10.408;2023-12-04T07:33:22;-2.00;99.90
11505;DHT22;5809;53.262;10.408;2023-12-04T07:40:44;-2.00;99.90
11505;DHT22;5809;53.262;10.408;2023-12-04T07:43:12;-2.10;99.90
11505;DHT22;5809;53.262;10.408;2023-12-04T07:45:39;-2.10;99.90
11505;DHT22;5809;53.262;10.408;2023-12-04T07:48:06;-2.00;99.90
11505;DHT22;5809;53.262;10.408;2023-12-04T07:50:34;-2.00;99.90
11505;DHT22;5809;53.262;10.408;2023-12-04T07:53:03;-2.00;99.90
11505;DHT22;5809;53.262;10.408;2023-12-04T07:55:30;-2.00;99.90
11505;DHT22;5809;53.262;10.408;2023-12-04T07:57:57;-2.00;99.90
11505;DHT22;5809;53.262;10.408;2023-12-04T08:02:51;-1.90;99.90
11505;DHT22;5809;53.262;10.408;2023-12-04T08:05:19;-1.90;99.90
11505;DHT22;5809;53.262;10.408;2023-12-04T08:07:47;-1.90;99.90
11505;DHT22;5809;53.262;10.408;2023-12-04T08:10:13;-1.90;99.90
11505;DHT22;5809;53.262;10.408;2023-12-04T08:15:08;-1.80;99.90
11505;DHT22;5809;53.262;10.408;2023-12-04T08:17:35;-1.80;99.90
11505;DHT22;5809;53.262;10.408;2023-12-04T08:22:30;-1.70;99.90
11505;DHT22;5809;53.262;10.408;2023-12-04T08:24:58;-0.10;99.90
11505;DHT22;5809;53.262;10.408;2023-12-04T08:32:19;-1.70;99.90
11505;DHT22;5809;53.262;10.408;2023-12-04T08:34:47;-1.70;99.90
11505;DHT22;5809;53.262;10.408;2023-12-04T08:37:14;-1.70;99.90
11505;DHT22;5809;53.262;10.408;2023-12-04T08:39:41;-1.70;99.90
11505;DHT22;5809;53.262;10.408;2023-12-04T08:42:09;-1.80;99.90
11505;DHT22;5809;53.262;10.408;2023-12-04T08:44:36;-1.80;99.90
11505;DHT22;5809;53.262;10.408;2023-12-04T08:49:30;-1.80;99.90
11505;DHT22;5809;53.262;10.408;2023-12-04T08:51:57;-1.80;99.90
11505;DHT22;5809;53.262;10.408;2023-12-04T08:54:24;-1.80;99.90
11505;DHT22;5809;53.262;10.408;2023-12-04T08:56:51;-1.80;99.90
11505;DHT22;5809;53.262;10.408;2023-12-04T08:59:21;-1.80;99.90
11505;DHT22;5809;53.262;10.408;2023-12-04T09:04:15;-1.80;99.90
11505;DHT22;5809;53.262;10.408;2023-12-04T09:06:42;-1.80;99.90
11505;DHT22;5809;53.262;10.408;2023-12-04T09:09:08;-1.90;99.90
11505;DHT22;5809;53.262;10.408;2023-12-04T09:11:40;-1.90;99.90
11505;DHT22;5809;53.262;10.408;2023-12-04T09:16:36;-1.90;99.90
11505;DHT22;5809;53.262;10.408;2023-12-04T09:19:02;-1.90;99.90
11505;DHT22;5809;53.262;10.408;2023-12-04T09:21:29;-1.80;99.90
11505;DHT22;5809;53.262;10.408;2023-12-04T09:23:56;-1.90;99.90
11505;DHT22;5809;53.262;10.408;2023-12-04T09:26:23;-1.90;99.90
11505;DHT22;5809;53.262;10.408;2023-12-04T09:31:17;-1.80;99.90
11505;DHT22;5809;53.262;10.408;2023-12-04T09:33:46;-1.80;99.90
11505;DHT22;5809;53.262;10.408;2023-12-04T09:36:13;-1.70;99.90
11505;DHT22;5809;53.262;10.408;2023-12-04T09:38:40;-1.70;99.90
11505;DHT22;5809;53.262;10.408;2023-12-04T09:41:09;-1.70;99.90
11505;DHT22;5809;53.262;10.408;2023-12-04T09:43:37;-1.60;99.90
11505;DHT22;5809;53.262;10.408;2023-12-04T09:46:07;-1.60;99.90
11505;DHT22;5809;53.262;10.408;2023-12-04T09:48:34;-1.50;99.90
11505;DHT22;5809;53.262;10.408;2023-12-04T09:51:04;-1.40;99.90
11505;DHT22;5809;53.262;10.408;2023-12-04T09:53:32;-1.30;99.90
11505;DHT22;5809;53.262;10.408;2023-12-04T09:56:02;-1.30;99.90
11505;DHT22;5809;53.262;10.408;2023-12-04T09:58:30;-1.40;99.90
11505;DHT22;5809;53.262;10.408;2023-12-04T10:00:58;-1.40;99.90
11505;DHT22;5809;53.262;10.408;2023-12-04T10:05:55;-1.40;99.90
11505;DHT22;5809;53.262;10.408;2023-12-04T10:08:23;-1.30;99.90
11505;DHT22;5809;53.262;10.408;2023-12-04T10:15:48;-1.40;99.90
11505;DHT22;5809;53.262;10.408;2023-12-04T10:18:27;-1.40;99.90
11505;DHT22;5809;53.262;10.408;2023-12-04T10:20:56;-1.30;99.90
11505;DHT22;5809;53.262;10.408;2023-12-04T10:23:37;-1.40;99.90
11505;DHT22;5809;53.262;10.408;2023-12-04T10:28:32;-1.30;99.90
11505;DHT22;5809;53.262;10.408;2023-12-04T10:30:59;-1.30;99.90
11505;DHT22;5809;53.262;10.408;2023-12-04T10:33:29;-1.20;99.90
11505;DHT22;5809;53.262;10.408;2023-12-04T10:35:56;-1.20;99.90
11505;DHT22;5809;53.262;10.408;2023-12-04T10:38:24;-1.20;99.90
11505;DHT22;5809;53.262;10.408;2023-12-04T10:40:52;-1.20;99.90
11505;DHT22;5809;53.262;10.408;2023-12-04T10:43:20;-1.00;99.90
11505;DHT22;5809;53.262;10.408;2023-12-04T10:45:48;-1.00;99.90
11505;DHT22;5809;53.262;10.408;2023-12-04T10:48:17;-1.00;99.90
11505;DHT22;5809;53.262;10.408;2023-12-04T10:50:45;-1.00;99.90
11505;DHT22;5809;53.262;10.408;2023-12-04T10:53:13;-1.00;99.90
11505;DHT22;5809;53.262;10.408;2023-12-04T10:55:43;-1.00;99.90
11505;DHT22;5809;53.262;10.408;2023-12-04T10:58:12;-0.90;99.90
11505;DHT22;5809;53.262;10.408;2023-12-04T11:00:42;-0.80;99.90
11505;DHT22;5809;53.262;10.408;2023-12-04T11:03:12;-0.90;99.90
11505;DHT22;5809;53.262;10.408;2023-12-04T11:05:40;-0.90;99.90
11505;DHT22;5809;53.262;10.408;2023-12-04T11:08:09;-0.90;99.90
11505;DHT22;5809;53.262;10.408;2023-12-04T11:10:43;-0.90;99.90
11505;DHT22;5809;53.262;10.408;2023-12-04T11:13:15;-0.90;99.90
11505;DHT22;5809;53.262;10.408;2023-12-04T11:15:47;-1.00;99.90
11505;DHT22;5809;53.262;10.408;2023-12-04T11:18:15;-0.90;99.90
11505;DHT22;5809;53.262;10.408;2023-12-04T11:20:48;-0.90;99.90
11505;DHT22;5809;53.262;10.408;2023-12-04T11:23:17;-0.90;99.90
11505;DHT22;5809;53.262;10.408;2023-12-04T11:25:46;-0.80;99.90
11505;DHT22;5809;53.262;10.408;2023-12-04T11:28:13;-0.90;99.90
11505;DHT22;5809;53.262;10.408;2023-12-04T11:30:41;-0.90;99.90
11505;DHT22;5809;53.262;10.408;2023-12-04T11:33:09;-0.80;99.90
11505;DHT22;5809;53.262;10.408;2023-12-04T11:35:37;-0.90;99.90
11505;DHT22;5809;53.262;10.408;2023-12-04T11:38:05;-0.90;99.90
11505;DHT22;5809;53.262;10.408;2023-12-04T11:40:32;-0.80;99.90
11505;DHT22;5809;53.262;10.408;2023-12-04T11:43:00;-0.80;99.90
11505;DHT22;5809;53.262;10.408;2023-12-04T11:45:32;-0.80;99.90
11505;DHT22;5809;53.262;10.408;2023-12-04T11:50:26;-0.70;99.90
11505;DHT22;5809;53.262;10.408;2023-12-04T11:52:54;-0.60;99.90
11505;DHT22;5809;53.262;10.408;2023-12-04T11:55:22;-0.60;99.90
11505;DHT22;5809;53.262;10.408;2023-12-04T11:57:50;-0.50;99.90
11505;DHT22;5809;53.262;10.408;2023-12-04T12:00:23;-0.50;99.90
11505;DHT22;5809;53.262;10.408;2023-12-04T12:03:05;-0.50;99.90
11505;DHT22;5809;53.262;10.408;2023-12-04T12:05:33;-0.40;99.90
11505;DHT22;5809;53.262;10.408;2023-12-04T12:08:01;-0.40;99.90
11505;DHT22;5809;53.262;10.408;2023-12-04T12:12:56;-0.40;99.90
11505;DHT22;5809;53.262;10.408;2023-12-04T12:15:25;-0.30;99.90
11505;DHT22;5809;53.262;10.408;2023-12-04T12:17:52;-0.20;99.90
11505;DHT22;5809;53.262;10.408;2023-12-04T12:20:19;-0.30;99.90
11505;DHT22;5809;53.262;10.408;2023-12-04T12:22:48;-0.20;99.90
11505;DHT22;5809;53.262;10.408;2023-12-04T12:25:15;-0.20;99.90
11505;DHT22;5809;53.262;10.408;2023-12-04T12:27:42;-0.10;99.90
11505;DHT22;5809;53.262;10.408;2023-12-04T12:30:10;-0.10;99.90
11505;DHT22;5809;53.262;10.408;2023-12-04T12:32:38;0.00;99.90
11505;DHT22;5809;53.262;10.408;2023-12-04T12:35:06;0.10;99.90
11505;DHT22;5809;53.262;10.408;2023-12-04T12:37:34;0.10;99.90
11505;DHT22;5809;53.262;10.408;2023-12-04T12:40:01;0.20;99.90
11505;DHT22;5809;53.262;10.408;2023-12-04T12:42:30;0.20;99.90
11505;DHT22;5809;53.262;10.408;2023-12-04T12:45:01;0.20;99.90
11505;DHT22;5809;53.262;10.408;2023-12-04T12:47:29;0.20;99.90
11505;DHT22;5809;53.262;10.408;2023-12-04T12:49:57;0.20;99.90
11505;DHT22;5809;53.262;10.408;2023-12-04T12:52:27;0.00;99.90
11505;DHT22;5809;53.262;10.408;2023-12-04T12:57:21;0.00;99.90
11505;DHT22;5809;53.262;10.408;2023-12-04T13:02:14;0.00;99.90
11505;DHT22;5809;53.262;10.408;2023-12-04T13:04:43;0.00;99.90
11505;DHT22;5809;53.262;10.408;2023-12-04T13:07:12;0.00;99.90
11505;DHT22;5809;53.262;10.408;2023-12-04T13:09:39;0.00;99.90
11505;DHT22;5809;53.262;10.408;2023-12-04T13:12:06;0.00;99.90
11505;DHT22;5809;53.262;10.408;2023-12-04T13:14:34;-0.20;99.90
11505;DHT22;5809;53.262;10.408;2023-12-04T13:17:01;0.10;99.90
11505;DHT22;5809;53.262;10.408;2023-12-04T13:19:29;0.00;99.90
11505;DHT22;5809;53.262;10.408;2023-12-04T13:21:57;0.00;99.90
11505;DHT22;5809;53.262;10.408;2023-12-04T13:24:25;-0.10;99.90
11505;DHT22;5809;53.262;10.408;2023-12-04T13:26:53;-0.10;99.90
11505;DHT22;5809;53.262;10.408;2023-12-04T13:29:20;-0.10;99.90
11505;DHT22;5809;53.262;10.408;2023-12-04T13:31:48;-0.20;99.90
11505;DHT22;5809;53.262;10.408;2023-12-04T13:34:16;-0.20;99.90
11505;DHT22;5809;53.262;10.408;2023-12-04T13:39:10;-0.40;99.90
11505;DHT22;5809;53.262;10.408;2023-12-04T13:41:44;-0.40;99.90
11505;DHT22;5809;53.262;10.408;2023-12-04T13:46:56;-0.50;99.90
11505;DHT22;5809;53.262;10.408;2023-12-04T13:56:49;-0.60;99.90
11505;DHT22;5809;53.262;10.408;2023-12-04T13:59:19;-0.70;99.90
11505;DHT22;5809;53.262;10.408;2023-12-04T14:01:47;0.70;99.90
11505;DHT22;5809;53.262;10.408;2023-12-04T14:06:43;-0.70;99.90
11505;DHT22;5809;53.262;10.408;2023-12-04T14:11:41;-0.70;99.90
11505;DHT22;5809;53.262;10.408;2023-12-04T14:14:11;-0.70;99.90
11505;DHT22;5809;53.262;10.408;2023-12-04T14:16:39;-0.70;99.90
11505;DHT22;5809;53.262;10.408;2023-12-04T14:21:34;-0.80;99.90
11505;DHT22;5809;53.262;10.408;2023-12-04T14:26:28;-0.80;99.90
11505;DHT22;5809;53.262;10.408;2023-12-04T14:28:55;-0.70;99.90
11505;DHT22;5809;53.262;10.408;2023-12-04T14:31:24;-0.70;99.90
11505;DHT22;5809;53.262;10.408;2023-12-04T14:36:19;-0.70;99.90
11505;DHT22;5809;53.262;10.408;2023-12-04T14:41:13;-0.70;99.90
11505;DHT22;5809;53.262;10.408;2023-12-04T14:46:08;-0.70;99.90
11505;DHT22;5809;53.262;10.408;2023-12-04T14:48:37;-0.70;99.90
11505;DHT22;5809;53.262;10.408;2023-12-04T14:51:06;-0.60;99.90
11505;DHT22;5809;53.262;10.408;2023-12-04T14:53:33;-0.60;99.90
11505;DHT22;5809;53.262;10.408;2023-12-04T14:56:10;-0.60;99.90
11505;DHT22;5809;53.262;10.408;2023-12-04T14:58:55;-0.60;99.90
11505;DHT22;5809;53.262;10.408;2023-12-04T15:01:44;-0.60;99.90
11505;DHT22;5809;53.262;10.408;2023-12-04T15:04:38;-0.60;99.90
11505;DHT22;5809;53.262;10.408;2023-12-04T15:07:22;-0.60;99.90
11505;DHT22;5809;53.262;10.408;2023-12-04T15:13:15;-0.60;99.90
11505;DHT22;5809;53.262;10.408;2023-12-04T15:16:05;-0.60;99.90
11505;DHT22;5809;53.262;10.408;2023-12-04T15:18:55;-0.70;99.90
11505;DHT22;5809;53.262;10.408;2023-12-04T15:21:40;-0.70;99.90
11505;DHT22;5809;53.262;10.408;2023-12-04T15:24:07;-0.70;99.90
11505;DHT22;5809;53.262;10.408;2023-12-04T15:26:33;-0.70;99.90
11505;DHT22;5809;53.262;10.408;2023-12-04T15:29:00;-0.70;99.90
11505;DHT22;5809;53.262;10.408;2023-12-04T15:36:20;-0.80;99.90
11505;DHT22;5809;53.262;10.408;2023-12-04T15:38:49;-0.70;99.90
11505;DHT22;5809;53.262;10.408;2023-12-04T15:51:07;-0.80;99.90
11505;DHT22;5809;53.262;10.408;2023-12-04T15:53:34;-0.80;99.90
11505;DHT22;5809;53.262;10.408;2023-12-04T15:56:01;-0.80;99.90
11505;DHT22;5809;53.262;10.408;2023-12-04T15:58:30;-0.80;99.90
11505;DHT22;5809;53.262;10.408;2023-12-04T16:00:58;-0.80;99.90
11505;DHT22;5809;53.262;10.408;2023-12-04T16:05:51;-0.80;99.90
11505;DHT22;5809;53.262;10.408;2023-12-04T16:08:18;-0.80;99.90
11505;DHT22;5809;53.262;10.408;2023-12-04T16:10:45;-0.80;99.90
11505;DHT22;5809;53.262;10.408;2023-12-04T16:13:13;-0.80;99.90
11505;DHT22;5809;53.262;10.408;2023-12-04T16:15:41;-0.80;99.90
11505;DHT22;5809;53.262;10.408;2023-12-04T16:18:11;-0.80;99.90
11505;DHT22;5809;53.262;10.408;2023-12-04T16:23:06;-0.80;99.90
11505;DHT22;5809;53.262;10.408;2023-12-04T16:25:33;-0.80;99.90
11505;DHT22;5809;53.262;10.408;2023-12-04T16:30:28;-0.80;99.90
11505;DHT22;5809;53.262;10.408;2023-12-04T16:32:55;-0.90;99.90
11505;DHT22;5809;53.262;10.408;2023-12-04T16:37:49;-0.80;99.90
11505;DHT22;5809;53.262;10.408;2023-12-04T16:47:40;-0.80;99.90
11505;DHT22;5809;53.262;10.408;2023-12-04T16:52:35;-0.80;99.90
11505;DHT22;5809;53.262;10.408;2023-12-04T16:59:58;-0.80;99.90
11505;DHT22;5809;53.262;10.408;2023-12-04T17:04:53;-0.80;99.90
11505;DHT22;5809;53.262;10.408;2023-12-04T17:07:19;-0.80;99.90
11505;DHT22;5809;53.262;10.408;2023-12-04T17:09:46;-0.80;99.90
11505;DHT22;5809;53.262;10.408;2023-12-04T17:12:13;-0.80;99.90
11505;DHT22;5809;53.262;10.408;2023-12-04T17:17:07;-0.80;99.90
11505;DHT22;5809;53.262;10.408;2023-12-04T17:19:34;-0.80;99.90
11505;DHT22;5809;53.262;10.408;2023-12-04T17:22:02;-0.80;99.90
11505;DHT22;5809;53.262;10.408;2023-12-04T17:31:53;-0.80;99.90
11505;DHT22;5809;53.262;10.408;2023-12-04T17:34:20;-0.80;99.90
11505;DHT22;5809;53.262;10.408;2023-12-04T17:39:15;-0.80;99.90
11505;DHT22;5809;53.262;10.408;2023-12-04T17:44:10;-0.80;99.90
11505;DHT22;5809;53.262;10.408;2023-12-04T17:49:04;-0.80;99.90
11505;DHT22;5809;53.262;10.408;2023-12-04T17:51:31;-0.80;99.90
11505;DHT22;5809;53.262;10.408;2023-12-04T17:56:26;-0.80;99.90
11505;DHT22;5809;53.262;10.408;2023-12-04T17:58:53;-0.80;99.90
11505;DHT22;5809;53.262;10.408;2023-12-04T18:01:20;-0.80;99.90
11505;DHT22;5809;53.262;10.408;2023-12-04T18:06:14;-0.80;99.90
11505;DHT22;5809;53.262;10.408;2023-12-04T18:08:41;-0.80;99.90
11505;DHT22;5809;53.262;10.408;2023-12-04T18:13:38;-0.80;99.90
11505;DHT22;5809;53.262;10.408;2023-12-04T18:16:05;-0.80;99.90
11505;DHT22;5809;53.262;10.408;2023-12-04T18:21:00;-0.80;99.90
11505;DHT22;5809;53.262;10.408;2023-12-04T18:25:55;-0.80;99.90
11505;DHT22;5809;53.262;10.408;2023-12-04T18:28:22;-0.80;99.90
11505;DHT22;5809;53.262;10.408;2023-12-04T18:30:51;-0.80;99.90
11505;DHT22;5809;53.262;10.408;2023-12-04T18:33:18;-0.80;99.90
11505;DHT22;5809;53.262;10.408;2023-12-04T18:35:47;2.50;99.90
11505;DHT22;5809;53.262;10.408;2023-12-04T18:38:18;-0.90;99.90
11505;DHT22;5809;53.262;10.408;2023-12-04T18:40:46;-0.80;99.90
11505;DHT22;5809;53.262;10.408;2023-12-04T18:45:40;-0.90;99.90
11505;DHT22;5809;53.262;10.408;2023-12-04T18:48:11;-0.90;99.90
11505;DHT22;5809;53.262;10.408;2023-12-04T18:53:11;-0.90;99.90
11505;DHT22;5809;53.262;10.408;2023-12-04T18:55:37;-0.90;99.90
11505;DHT22;5809;53.262;10.408;2023-12-04T18:58:04;-0.90;99.90
11505;DHT22;5809;53.262;10.408;2023-12-04T19:03:04;-0.90;99.90
11505;DHT22;5809;53.262;10.408;2023-12-04T19:05:32;-0.90;99.90
11505;DHT22;5809;53.262;10.408;2023-12-04T19:12:54;-0.90;99.90
11505;DHT22;5809;53.262;10.408;2023-12-04T19:15:21;-0.90;99.90
11505;DHT22;5809;53.262;10.408;2023-12-04T19:22:44;-0.90;99.90
11505;DHT22;5809;53.262;10.408;2023-12-04T19:25:11;-1.00;99.90
11505;DHT22;5809;53.262;10.408;2023-12-04T19:27:39;-1.00;99.90
11505;DHT22;5809;53.262;10.408;2023-12-04T19:30:07;-1.00;99.90
11505;DHT22;5809;53.262;10.408;2023-12-04T19:32:33;-1.00;99.90
11505;DHT22;5809;53.262;10.408;2023-12-04T19:39:56;-1.00;99.90
11505;DHT22;5809;53.262;10.408;2023-12-04T19:42:24;-1.00;99.90
11505;DHT22;5809;53.262;10.408;2023-12-04T19:47:20;-1.00;99.90
11505;DHT22;5809;53.262;10.408;2023-12-04T19:54:41;-1.10;99.90
11505;DHT22;5809;53.262;10.408;2023-12-04T19:57:09;-1.10;99.90
11505;DHT22;5809;53.262;10.408;2023-12-04T19:59:36;-1.00;99.90
11505;DHT22;5809;53.262;10.408;2023-12-04T20:02:03;-1.10;99.90
11505;DHT22;5809;53.262;10.408;2023-12-04T20:04:30;-1.10;99.90
11505;DHT22;5809;53.262;10.408;2023-12-04T20:09:24;-1.20;99.90
11505;DHT22;5809;53.262;10.408;2023-12-04T20:14:19;-1.20;99.90
11505;DHT22;5809;53.262;10.408;2023-12-04T20:16:47;-1.20;99.90
11505;DHT22;5809;53.262;10.408;2023-12-04T20:19:15;-1.30;99.90
11505;DHT22;5809;53.262;10.408;2023-12-04T20:21:42;-1.30;99.90
11505;DHT22;5809;53.262;10.408;2023-12-04T20:26:36;-1.40;99.90
11505;DHT22;5809;53.262;10.408;2023-12-04T20:29:03;-1.40;99.90
11505;DHT22;5809;53.262;10.408;2023-12-04T20:31:30;-1.40;99.90
11505;DHT22;5809;53.262;10.408;2023-12-04T20:33:57;-1.40;99.90
11505;DHT22;5809;53.262;10.408;2023-12-04T20:41:19;-1.50;99.90
11505;DHT22;5809;53.262;10.408;2023-12-04T20:48:42;-1.50;99.90
11505;DHT22;5809;53.262;10.408;2023-12-04T20:53:38;-1.50;99.90
11505;DHT22;5809;53.262;10.408;2023-12-04T20:56:06;-1.50;99.90
11505;DHT22;5809;53.262;10.408;2023-12-04T20:58:32;-1.50;99.90
11505;DHT22;5809;53.262;10.408;2023-12-04T21:00:59;-1.50;99.90
11505;DHT22;5809;53.262;10.408;2023-12-04T21:03:26;-1.60;99.90
11505;DHT22;5809;53.262;10.408;2023-12-04T21:05:54;-1.40;99.90
11505;DHT22;5809;53.262;10.408;2023-12-04T21:08:21;-1.50;99.90
11505;DHT22;5809;53.262;10.408;2023-12-04T21:13:15;-1.50;99.90
11505;DHT22;5809;53.262;10.408;2023-12-04T21:15:42;-1.60;99.90
11505;DHT22;5809;53.262;10.408;2023-12-04T21:23:05;-1.60;99.90
11505;DHT22;5809;53.262;10.408;2023-12-04T21:25:32;-1.60;99.90
11505;DHT22;5809;53.262;10.408;2023-12-04T21:27:59;-1.60;99.90
11505;DHT22;5809;53.262;10.408;2023-12-04T21:30:26;-1.60;99.90